sensor_id;sensor_type;location;lat;lon;timestamp;P1;durP1;ratioP1;P2;durP2;ratioP2
38264;SDS011;24062;47.480;8.768;2023-08-31T00:00:06;1.70;;;1.07;;
38264;SDS011;24062;47.480;8.768;2023-08-31T00:02:35;3.00;;;0.90;;
38264;SDS011;24062;47.480;8.768;2023-08-31T00:05:02;1.60;;;1.13;;
38264;SDS011;24062;47.480;8.768;2023-08-31T00:07:30;1.53;;;1.10;;
38264;SDS011;24062;47.480;8.768;2023-08-31T00:09:57;2.03;;;1.03;;
38264;SDS011;24062;47.480;8.768;2023-08-31T00:12:26;1.83;;;0.90;;
38264;SDS011;24062;47.480;8.768;2023-08-31T00:14:53;2.20;;;1.50;;
38264;SDS011;24062;47.480;8.768;2023-08-31T00:17:20;1.70;;;1.00;;
38264;SDS011;24062;47.480;8.768;2023-08-31T00:19:47;1.57;;;0.90;;
38264;SDS011;24062;47.480;8.768;2023-08-31T00:22:14;1.40;;;0.70;;
38264;SDS011;24062;47.480;8.768;2023-08-31T00:24:41;1.87;;;1.20;;
38264;SDS011;24062;47.480;8.768;2023-08-31T00:27:08;1.90;;;1.17;;
38264;SDS011;24062;47.480;8.768;2023-08-31T00:29:41;1.40;;;0.93;;
38264;SDS011;24062;47.480;8.768;2023-08-31T00:32:11;1.40;;;0.80;;
38264;SDS011;24062;47.480;8.768;2023-08-31T00:34:38;1.80;;;1.00;;
38264;SDS011;24062;47.480;8.768;2023-08-31T00:37:05;1.80;;;1.07;;
38264;SDS011;24062;47.480;8.768;2023-08-31T00:39:33;2.03;;;0.80;;
38264;SDS011;24062;47.480;8.768;2023-08-31T00:42:00;1.50;;;0.80;;
38264;SDS011;24062;47.480;8.768;2023-08-31T00:44:28;1.33;;;0.80;;
38264;SDS011;24062;47.480;8.768;2023-08-31T00:46:56;2.03;;;0.90;;
38264;SDS011;24062;47.480;8.768;2023-08-31T00:49:24;1.30;;;0.70;;
38264;SDS011;24062;47.480;8.768;2023-08-31T00:51:51;1.97;;;0.90;;
38264;SDS011;24062;47.480;8.768;2023-08-31T00:54:18;1.40;;;0.87;;
38264;SDS011;24062;47.480;8.768;2023-08-31T00:56:46;1.70;;;0.90;;
38264;SDS011;24062;47.480;8.768;2023-08-31T00:59:17;1.50;;;0.70;;
38264;SDS011;24062;47.480;8.768;2023-08-31T01:01:47;1.90;;;1.10;;
38264;SDS011;24062;47.480;8.768;2023-08-31T01:04:26;1.77;;;0.97;;
38264;SDS011;24062;47.480;8.768;2023-08-31T01:07:01;1.60;;;0.97;;
38264;SDS011;24062;47.480;8.768;2023-08-31T01:09:39;1.50;;;0.80;;
38264;SDS011;24062;47.480;8.768;2023-08-31T01:12:11;1.50;;;0.80;;
38264;SDS011;24062;47.480;8.768;2023-08-31T01:14:42;1.53;;;0.60;;
38264;SDS011;24062;47.480;8.768;2023-08-31T01:17:13;1.70;;;0.70;;
38264;SDS011;24062;47.480;8.768;2023-08-31T01:19:44;1.50;;;0.80;;
38264;SDS011;24062;47.480;8.768;2023-08-31T01:22:15;1.70;;;1.00;;
38264;SDS011;24062;47.480;8.768;2023-08-31T01:24:57;1.60;;;0.80;;
38264;SDS011;24062;47.480;8.768;2023-08-31T01:27:28;2.47;;;0.87;;
38264;SDS011;24062;47.480;8.768;2023-08-31T01:29:56;1.53;;;1.00;;
38264;SDS011;24062;47.480;8.768;2023-08-31T01:32:24;1.60;;;0.87;;
38264;SDS011;24062;47.480;8.768;2023-08-31T01:34:51;1.63;;;0.80;;
38264;SDS011;24062;47.480;8.768;2023-08-31T01:37:24;1.70;;;0.83;;
38264;SDS011;24062;47.480;8.768;2023-08-31T01:39:58;2.37;;;0.80;;
38264;SDS011;24062;47.480;8.768;2023-08-31T01:42:29;1.50;;;0.90;;
38264;SDS011;24062;47.480;8.768;2023-08-31T01:44:57;1.60;;;0.80;;
38264;SDS011;24062;47.480;8.768;2023-08-31T01:47:26;1.70;;;0.97;;
38264;SDS011;24062;47.480;8.768;2023-08-31T01:49:54;2.80;;;0.90;;
38264;SDS011;24062;47.480;8.768;2023-08-31T01:52:21;1.70;;;1.00;;
38264;SDS011;24062;47.480;8.768;2023-08-31T01:54:48;1.50;;;0.80;;
38264;SDS011;24062;47.480;8.768;2023-08-31T01:57:16;1.93;;;0.70;;
38264;SDS011;24062;47.480;8.768;2023-08-31T01:59:43;1.50;;;0.80;;
38264;SDS011;24062;47.480;8.768;2023-08-31T02:02:10;1.50;;;0.70;;
38264;SDS011;24062;47.480;8.768;2023-08-31T02:04:37;1.40;;;0.70;;
38264;SDS011;24062;47.480;8.768;2023-08-31T02:07:04;1.40;;;0.70;;
38264;SDS011;24062;47.480;8.768;2023-08-31T02:09:31;1.80;;;1.00;;
38264;SDS011;24062;47.480;8.768;2023-08-31T02:11:58;1.40;;;0.70;;
38264;SDS011;24062;47.480;8.768;2023-08-31T02:14:26;1.70;;;1.00;;
38264;SDS011;24062;47.480;8.768;2023-08-31T02:16:53;5.57;;;1.10;;
38264;SDS011;24062;47.480;8.768;2023-08-31T02:19:20;1.60;;;0.90;;
38264;SDS011;24062;47.480;8.768;2023-08-31T02:21:47;1.60;;;0.73;;
38264;SDS011;24062;47.480;8.768;2023-08-31T02:24:14;1.70;;;0.70;;
38264;SDS011;24062;47.480;8.768;2023-08-31T02:26:41;1.60;;;0.93;;
38264;SDS011;24062;47.480;8.768;2023-08-31T02:29:07;1.63;;;1.00;;
38264;SDS011;24062;47.480;8.768;2023-08-31T02:31:36;1.70;;;0.70;;
38264;SDS011;24062;47.480;8.768;2023-08-31T02:34:03;1.80;;;0.90;;
38264;SDS011;24062;47.480;8.768;2023-08-31T02:36:30;3.30;;;1.00;;
38264;SDS011;24062;47.480;8.768;2023-08-31T02:38:57;1.70;;;0.90;;
38264;SDS011;24062;47.480;8.768;2023-08-31T02:41:24;1.50;;;0.90;;
38264;SDS011;24062;47.480;8.768;2023-08-31T02:43:51;1.50;;;0.90;;
38264;SDS011;24062;47.480;8.768;2023-08-31T02:46:18;1.67;;;1.07;;
38264;SDS011;24062;47.480;8.768;2023-08-31T02:48:47;1.80;;;0.90;;
38264;SDS011;24062;47.480;8.768;2023-08-31T02:51:14;1.50;;;0.70;;
38264;SDS011;24062;47.480;8.768;2023-08-31T02:53:41;1.77;;;0.80;;
38264;SDS011;24062;47.480;8.768;2023-08-31T02:56:08;1.40;;;0.70;;
38264;SDS011;24062;47.480;8.768;2023-08-31T02:58:34;1.70;;;0.80;;
38264;SDS011;24062;47.480;8.768;2023-08-31T03:01:08;1.40;;;0.80;;
38264;SDS011;24062;47.480;8.768;2023-08-31T03:03:37;1.40;;;0.80;;
38264;SDS011;24062;47.480;8.768;2023-08-31T03:06:06;1.53;;;0.70;;
38264;SDS011;24062;47.480;8.768;2023-08-31T03:08:33;1.57;;;0.80;;
38264;SDS011;24062;47.480;8.768;2023-08-31T03:11:01;1.50;;;0.73;;
38264;SDS011;24062;47.480;8.768;2023-08-31T03:13:28;1.70;;;0.90;;
38264;SDS011;24062;47.480;8.768;2023-08-31T03:15:55;1.50;;;0.90;;
38264;SDS011;24062;47.480;8.768;2023-08-31T03:18:22;1.57;;;0.93;;
38264;SDS011;24062;47.480;8.768;2023-08-31T03:20:49;1.70;;;1.13;;
38264;SDS011;24062;47.480;8.768;2023-08-31T03:23:18;1.40;;;0.70;;
38264;SDS011;24062;47.480;8.768;2023-08-31T03:25:45;1.80;;;0.90;;
38264;SDS011;24062;47.480;8.768;2023-08-31T03:28:12;1.50;;;0.80;;
38264;SDS011;24062;47.480;8.768;2023-08-31T03:30:39;2.80;;;1.10;;
38264;SDS011;24062;47.480;8.768;2023-08-31T03:33:05;1.80;;;0.90;;
38264;SDS011;24062;47.480;8.768;2023-08-31T03:35:33;1.50;;;0.90;;
38264;SDS011;24062;47.480;8.768;2023-08-31T03:38:00;1.60;;;0.83;;
38264;SDS011;24062;47.480;8.768;2023-08-31T03:40:28;1.70;;;0.90;;
38264;SDS011;24062;47.480;8.768;2023-08-31T03:42:55;2.07;;;0.90;;
38264;SDS011;24062;47.480;8.768;2023-08-31T03:45:22;2.63;;;1.00;;
38264;SDS011;24062;47.480;8.768;2023-08-31T03:47:49;1.70;;;1.10;;
38264;SDS011;24062;47.480;8.768;2023-08-31T03:50:16;2.33;;;0.93;;
38264;SDS011;24062;47.480;8.768;2023-08-31T03:52:44;1.60;;;0.90;;
38264;SDS011;24062;47.480;8.768;2023-08-31T03:55:10;1.47;;;0.70;;
38264;SDS011;24062;47.480;8.768;2023-08-31T03:57:39;1.70;;;1.00;;
38264;SDS011;24062;47.480;8.768;2023-08-31T04:00:06;2.43;;;0.87;;
38264;SDS011;24062;47.480;8.768;2023-08-31T04:02:37;2.93;;;0.80;;
38264;SDS011;24062;47.480;8.768;2023-08-31T04:05:04;1.40;;;0.70;;
38264;SDS011;24062;47.480;8.768;2023-08-31T04:07:34;1.80;;;1.00;;
38264;SDS011;24062;47.480;8.768;2023-08-31T04:10:01;1.80;;;1.10;;
38264;SDS011;24062;47.480;8.768;2023-08-31T04:12:28;1.80;;;0.80;;
38264;SDS011;24062;47.480;8.768;2023-08-31T04:14:57;6.70;;;1.10;;
38264;SDS011;24062;47.480;8.768;2023-08-31T04:17:24;2.17;;;1.00;;
38264;SDS011;24062;47.480;8.768;2023-08-31T04:19:51;2.43;;;0.90;;
38264;SDS011;24062;47.480;8.768;2023-08-31T04:22:18;2.60;;;1.33;;
38264;SDS011;24062;47.480;8.768;2023-08-31T04:24:45;2.40;;;0.80;;
38264;SDS011;24062;47.480;8.768;2023-08-31T04:27:12;1.80;;;0.90;;
38264;SDS011;24062;47.480;8.768;2023-08-31T04:29:39;1.60;;;0.70;;
38264;SDS011;24062;47.480;8.768;2023-08-31T04:32:07;5.27;;;0.90;;
38264;SDS011;24062;47.480;8.768;2023-08-31T04:34:34;2.83;;;1.50;;
38264;SDS011;24062;47.480;8.768;2023-08-31T04:37:01;1.50;;;0.83;;
38264;SDS011;24062;47.480;8.768;2023-08-31T04:39:28;2.03;;;1.00;;
38264;SDS011;24062;47.480;8.768;2023-08-31T04:41:55;3.53;;;1.17;;
38264;SDS011;24062;47.480;8.768;2023-08-31T04:44:22;1.93;;;0.97;;
38264;SDS011;24062;47.480;8.768;2023-08-31T04:46:49;1.73;;;0.90;;
38264;SDS011;24062;47.480;8.768;2023-08-31T04:49:17;3.03;;;1.53;;
38264;SDS011;24062;47.480;8.768;2023-08-31T04:51:44;2.30;;;1.23;;
38264;SDS011;24062;47.480;8.768;2023-08-31T04:54:12;2.17;;;1.00;;
38264;SDS011;24062;47.480;8.768;2023-08-31T04:56:39;2.53;;;0.97;;
38264;SDS011;24062;47.480;8.768;2023-08-31T04:59:06;2.90;;;1.10;;
38264;SDS011;24062;47.480;8.768;2023-08-31T05:01:33;4.17;;;1.77;;
38264;SDS011;24062;47.480;8.768;2023-08-31T05:04:00;5.90;;;1.67;;
38264;SDS011;24062;47.480;8.768;2023-08-31T05:06:28;6.70;;;1.50;;
38264;SDS011;24062;47.480;8.768;2023-08-31T05:08:55;5.20;;;1.53;;
38264;SDS011;24062;47.480;8.768;2023-08-31T05:11:22;3.73;;;1.43;;
38264;SDS011;24062;47.480;8.768;2023-08-31T05:13:49;2.50;;;1.27;;
38264;SDS011;24062;47.480;8.768;2023-08-31T05:16:16;4.73;;;1.80;;
38264;SDS011;24062;47.480;8.768;2023-08-31T05:18:43;5.40;;;1.57;;
38264;SDS011;24062;47.480;8.768;2023-08-31T05:21:10;4.20;;;1.40;;
38264;SDS011;24062;47.480;8.768;2023-08-31T05:23:38;3.00;;;1.70;;
38264;SDS011;24062;47.480;8.768;2023-08-31T05:26:05;6.77;;;2.17;;
38264;SDS011;24062;47.480;8.768;2023-08-31T05:28:32;8.97;;;2.53;;
38264;SDS011;24062;47.480;8.768;2023-08-31T05:31:00;5.47;;;2.20;;
38264;SDS011;24062;47.480;8.768;2023-08-31T05:33:28;10.20;;;2.40;;
38264;SDS011;24062;47.480;8.768;2023-08-31T05:35:59;6.87;;;2.07;;
38264;SDS011;24062;47.480;8.768;2023-08-31T05:38:28;7.33;;;2.67;;
38264;SDS011;24062;47.480;8.768;2023-08-31T05:41:04;5.63;;;2.33;;
38264;SDS011;24062;47.480;8.768;2023-08-31T05:43:32;8.50;;;2.13;;
38264;SDS011;24062;47.480;8.768;2023-08-31T05:45:59;3.07;;;1.60;;
38264;SDS011;24062;47.480;8.768;2023-08-31T05:48:26;10.37;;;2.50;;
38264;SDS011;24062;47.480;8.768;2023-08-31T05:50:53;4.30;;;1.77;;
38264;SDS011;24062;47.480;8.768;2023-08-31T05:53:20;6.20;;;2.23;;
38264;SDS011;24062;47.480;8.768;2023-08-31T05:55:47;4.10;;;1.53;;
38264;SDS011;24062;47.480;8.768;2023-08-31T05:58:16;4.90;;;2.13;;
38264;SDS011;24062;47.480;8.768;2023-08-31T06:00:43;4.00;;;1.53;;
38264;SDS011;24062;47.480;8.768;2023-08-31T06:03:10;6.17;;;1.97;;
38264;SDS011;24062;47.480;8.768;2023-08-31T06:05:37;5.87;;;1.97;;
38264;SDS011;24062;47.480;8.768;2023-08-31T06:08:04;3.20;;;1.93;;
38264;SDS011;24062;47.480;8.768;2023-08-31T06:10:31;3.10;;;1.50;;
38264;SDS011;24062;47.480;8.768;2023-08-31T06:12:58;3.87;;;1.70;;
38264;SDS011;24062;47.480;8.768;2023-08-31T06:15:27;3.83;;;1.50;;
38264;SDS011;24062;47.480;8.768;2023-08-31T06:17:54;3.93;;;1.70;;
38264;SDS011;24062;47.480;8.768;2023-08-31T06:20:21;4.30;;;1.50;;
38264;SDS011;24062;47.480;8.768;2023-08-31T06:22:48;3.43;;;1.30;;
38264;SDS011;24062;47.480;8.768;2023-08-31T06:25:15;3.60;;;1.90;;
38264;SDS011;24062;47.480;8.768;2023-08-31T06:27:43;3.97;;;1.60;;
38264;SDS011;24062;47.480;8.768;2023-08-31T06:30:11;3.40;;;1.70;;
38264;SDS011;24062;47.480;8.768;2023-08-31T06:32:42;3.43;;;1.30;;
38264;SDS011;24062;47.480;8.768;2023-08-31T06:35:10;3.37;;;1.50;;
38264;SDS011;24062;47.480;8.768;2023-08-31T06:37:37;4.10;;;1.17;;
38264;SDS011;24062;47.480;8.768;2023-08-31T06:40:05;2.93;;;1.43;;
38264;SDS011;24062;47.480;8.768;2023-08-31T06:42:33;3.33;;;1.10;;
38264;SDS011;24062;47.480;8.768;2023-08-31T06:45:00;3.20;;;1.63;;
38264;SDS011;24062;47.480;8.768;2023-08-31T06:47:27;8.13;;;1.70;;
38264;SDS011;24062;47.480;8.768;2023-08-31T06:49:55;3.53;;;1.57;;
38264;SDS011;24062;47.480;8.768;2023-08-31T06:52:23;3.23;;;1.50;;
38264;SDS011;24062;47.480;8.768;2023-08-31T06:54:50;2.77;;;1.40;;
38264;SDS011;24062;47.480;8.768;2023-08-31T06:57:20;3.87;;;1.37;;
38264;SDS011;24062;47.480;8.768;2023-08-31T06:59:47;2.77;;;1.10;;
38264;SDS011;24062;47.480;8.768;2023-08-31T07:02:14;3.37;;;1.73;;
38264;SDS011;24062;47.480;8.768;2023-08-31T07:04:41;7.60;;;1.60;;
38264;SDS011;24062;47.480;8.768;2023-08-31T07:07:10;2.40;;;0.90;;
38264;SDS011;24062;47.480;8.768;2023-08-31T07:09:39;4.53;;;1.23;;
38264;SDS011;24062;47.480;8.768;2023-08-31T07:12:08;2.70;;;1.40;;
38264;SDS011;24062;47.480;8.768;2023-08-31T07:14:35;2.93;;;1.80;;
38264;SDS011;24062;47.480;8.768;2023-08-31T07:17:02;2.07;;;1.33;;
38264;SDS011;24062;47.480;8.768;2023-08-31T07:19:29;3.30;;;1.00;;
38264;SDS011;24062;47.480;8.768;2023-08-31T07:21:56;4.43;;;1.30;;
38264;SDS011;24062;47.480;8.768;2023-08-31T07:24:26;3.30;;;1.53;;
38264;SDS011;24062;47.480;8.768;2023-08-31T07:26:52;2.10;;;1.07;;
38264;SDS011;24062;47.480;8.768;2023-08-31T07:29:19;2.00;;;1.10;;
38264;SDS011;24062;47.480;8.768;2023-08-31T07:31:46;3.27;;;1.53;;
38264;SDS011;24062;47.480;8.768;2023-08-31T07:34:13;1.93;;;1.00;;
38264;SDS011;24062;47.480;8.768;2023-08-31T07:36:40;2.13;;;1.17;;
38264;SDS011;24062;47.480;8.768;2023-08-31T07:39:07;2.57;;;1.10;;
38264;SDS011;24062;47.480;8.768;2023-08-31T07:41:35;2.53;;;1.10;;
38264;SDS011;24062;47.480;8.768;2023-08-31T07:44:02;1.90;;;0.90;;
38264;SDS011;24062;47.480;8.768;2023-08-31T07:46:30;2.13;;;0.93;;
38264;SDS011;24062;47.480;8.768;2023-08-31T07:48:57;2.20;;;1.20;;
38264;SDS011;24062;47.480;8.768;2023-08-31T07:51:24;2.43;;;0.80;;
38264;SDS011;24062;47.480;8.768;2023-08-31T07:53:51;3.47;;;1.40;;
38264;SDS011;24062;47.480;8.768;2023-08-31T07:56:18;3.80;;;1.10;;
38264;SDS011;24062;47.480;8.768;2023-08-31T07:58:46;3.97;;;0.97;;
38264;SDS011;24062;47.480;8.768;2023-08-31T08:01:13;2.07;;;1.00;;
38264;SDS011;24062;47.480;8.768;2023-08-31T08:03:40;2.33;;;0.90;;
38264;SDS011;24062;47.480;8.768;2023-08-31T08:06:07;2.20;;;1.17;;
38264;SDS011;24062;47.480;8.768;2023-08-31T08:08:34;3.40;;;0.90;;
38264;SDS011;24062;47.480;8.768;2023-08-31T08:11:03;2.67;;;1.00;;
38264;SDS011;24062;47.480;8.768;2023-08-31T08:13:30;3.30;;;1.30;;
38264;SDS011;24062;47.480;8.768;2023-08-31T08:15:59;1.60;;;0.93;;
38264;SDS011;24062;47.480;8.768;2023-08-31T08:18:25;5.43;;;1.60;;
38264;SDS011;24062;47.480;8.768;2023-08-31T08:20:52;3.27;;;1.27;;
38264;SDS011;24062;47.480;8.768;2023-08-31T08:23:20;2.20;;;1.00;;
38264;SDS011;24062;47.480;8.768;2023-08-31T08:25:47;3.13;;;1.20;;
38264;SDS011;24062;47.480;8.768;2023-08-31T08:28:13;1.77;;;1.00;;
38264;SDS011;24062;47.480;8.768;2023-08-31T08:30:40;2.23;;;1.30;;
38264;SDS011;24062;47.480;8.768;2023-08-31T08:33:09;5.10;;;1.37;;
38264;SDS011;24062;47.480;8.768;2023-08-31T08:35:37;2.00;;;1.00;;
38264;SDS011;24062;47.480;8.768;2023-08-31T08:38:04;2.10;;;1.00;;
38264;SDS011;24062;47.480;8.768;2023-08-31T08:40:31;2.23;;;0.90;;
38264;SDS011;24062;47.480;8.768;2023-08-31T08:42:58;2.93;;;0.90;;
38264;SDS011;24062;47.480;8.768;2023-08-31T08:45:30;2.37;;;1.00;;
38264;SDS011;24062;47.480;8.768;2023-08-31T08:48:02;2.00;;;1.17;;
38264;SDS011;24062;47.480;8.768;2023-08-31T08:50:31;2.80;;;1.10;;
38264;SDS011;24062;47.480;8.768;2023-08-31T08:53:00;1.97;;;1.23;;
38264;SDS011;24062;47.480;8.768;2023-08-31T08:55:27;2.10;;;1.00;;
38264;SDS011;24062;47.480;8.768;2023-08-31T08:57:55;2.27;;;0.90;;
38264;SDS011;24062;47.480;8.768;2023-08-31T09:00:24;3.10;;;1.00;;
38264;SDS011;24062;47.480;8.768;2023-08-31T09:02:51;2.43;;;0.87;;
38264;SDS011;24062;47.480;8.768;2023-08-31T09:05:18;3.70;;;1.00;;
38264;SDS011;24062;47.480;8.768;2023-08-31T09:10:35;1.90;;;0.80;;
38264;SDS011;24062;47.480;8.768;2023-08-31T09:13:06;1.70;;;0.80;;
38264;SDS011;24062;47.480;8.768;2023-08-31T09:15:38;2.47;;;1.13;;
38264;SDS011;24062;47.480;8.768;2023-08-31T09:18:07;2.47;;;1.10;;
38264;SDS011;24062;47.480;8.768;2023-08-31T09:20:46;4.53;;;1.20;;
38264;SDS011;24062;47.480;8.768;2023-08-31T09:23:15;2.20;;;1.20;;
38264;SDS011;24062;47.480;8.768;2023-08-31T09:25:43;2.63;;;1.00;;
38264;SDS011;24062;47.480;8.768;2023-08-31T09:28:12;1.90;;;1.20;;
38264;SDS011;24062;47.480;8.768;2023-08-31T09:30:39;2.10;;;0.93;;
38264;SDS011;24062;47.480;8.768;2023-08-31T09:33:07;2.40;;;1.20;;
38264;SDS011;24062;47.480;8.768;2023-08-31T09:35:38;2.13;;;1.07;;
38264;SDS011;24062;47.480;8.768;2023-08-31T09:38:09;1.90;;;1.10;;
38264;SDS011;24062;47.480;8.768;2023-08-31T09:40:38;1.97;;;1.10;;
38264;SDS011;24062;47.480;8.768;2023-08-31T09:43:04;1.90;;;1.00;;
38264;SDS011;24062;47.480;8.768;2023-08-31T09:45:32;1.90;;;0.90;;
38264;SDS011;24062;47.480;8.768;2023-08-31T09:48:02;1.67;;;0.80;;
38264;SDS011;24062;47.480;8.768;2023-08-31T09:50:30;3.90;;;0.87;;
38264;SDS011;24062;47.480;8.768;2023-08-31T09:53:03;1.80;;;0.90;;
38264;SDS011;24062;47.480;8.768;2023-08-31T09:55:31;2.00;;;1.13;;
38264;SDS011;24062;47.480;8.768;2023-08-31T09:58:01;1.97;;;0.80;;
38264;SDS011;24062;47.480;8.768;2023-08-31T10:00:29;1.87;;;1.00;;
38264;SDS011;24062;47.480;8.768;2023-08-31T10:03:00;3.23;;;1.13;;
38264;SDS011;24062;47.480;8.768;2023-08-31T10:05:28;2.30;;;0.83;;
38264;SDS011;24062;47.480;8.768;2023-08-31T10:07:56;1.90;;;0.90;;
38264;SDS011;24062;47.480;8.768;2023-08-31T10:10:23;2.03;;;1.13;;
38264;SDS011;24062;47.480;8.768;2023-08-31T10:12:51;1.80;;;0.93;;
38264;SDS011;24062;47.480;8.768;2023-08-31T10:15:19;2.57;;;0.90;;
38264;SDS011;24062;47.480;8.768;2023-08-31T10:17:46;2.13;;;1.00;;
38264;SDS011;24062;47.480;8.768;2023-08-31T10:20:14;1.67;;;0.90;;
38264;SDS011;24062;47.480;8.768;2023-08-31T10:22:42;1.70;;;0.97;;
38264;SDS011;24062;47.480;8.768;2023-08-31T10:25:10;2.63;;;0.80;;
38264;SDS011;24062;47.480;8.768;2023-08-31T10:27:38;1.73;;;1.00;;
38264;SDS011;24062;47.480;8.768;2023-08-31T10:30:16;3.10;;;1.30;;
38264;SDS011;24062;47.480;8.768;2023-08-31T10:35:49;3.63;;;1.80;;
38264;SDS011;24062;47.480;8.768;2023-08-31T10:38:23;3.80;;;1.80;;
38264;SDS011;24062;47.480;8.768;2023-08-31T10:41:18;3.53;;;1.83;;
38264;SDS011;24062;47.480;8.768;2023-08-31T10:43:47;3.40;;;2.00;;
38264;SDS011;24062;47.480;8.768;2023-08-31T10:46:24;5.20;;;2.30;;
38264;SDS011;24062;47.480;8.768;2023-08-31T10:48:53;4.63;;;2.20;;
38264;SDS011;24062;47.480;8.768;2023-08-31T10:51:21;3.73;;;2.27;;
38264;SDS011;24062;47.480;8.768;2023-08-31T10:53:49;3.10;;;2.60;;
38264;SDS011;24062;47.480;8.768;2023-08-31T10:56:16;4.10;;;2.20;;
38264;SDS011;24062;47.480;8.768;2023-08-31T10:58:54;6.53;;;2.23;;
38264;SDS011;24062;47.480;8.768;2023-08-31T11:04:25;3.77;;;2.00;;
38264;SDS011;24062;47.480;8.768;2023-08-31T11:07:12;3.90;;;2.50;;
38264;SDS011;24062;47.480;8.768;2023-08-31T11:09:40;3.17;;;1.73;;
38264;SDS011;24062;47.480;8.768;2023-08-31T11:12:07;2.97;;;2.10;;
38264;SDS011;24062;47.480;8.768;2023-08-31T11:14:35;3.90;;;2.27;;
38264;SDS011;24062;47.480;8.768;2023-08-31T11:17:03;5.80;;;2.90;;
38264;SDS011;24062;47.480;8.768;2023-08-31T11:19:31;2.90;;;2.23;;
38264;SDS011;24062;47.480;8.768;2023-08-31T11:21:59;3.30;;;2.40;;
38264;SDS011;24062;47.480;8.768;2023-08-31T11:24:28;3.90;;;2.80;;
38264;SDS011;24062;47.480;8.768;2023-08-31T11:26:55;3.80;;;2.50;;
38264;SDS011;24062;47.480;8.768;2023-08-31T11:29:22;6.07;;;2.13;;
38264;SDS011;24062;47.480;8.768;2023-08-31T11:31:49;4.63;;;2.37;;
38264;SDS011;24062;47.480;8.768;2023-08-31T11:34:17;4.67;;;2.30;;
38264;SDS011;24062;47.480;8.768;2023-08-31T11:36:45;4.00;;;2.40;;
38264;SDS011;24062;47.480;8.768;2023-08-31T11:39:13;4.30;;;2.33;;
38264;SDS011;24062;47.480;8.768;2023-08-31T11:41:40;2.93;;;1.80;;
38264;SDS011;24062;47.480;8.768;2023-08-31T11:44:08;3.93;;;2.03;;
38264;SDS011;24062;47.480;8.768;2023-08-31T11:46:36;3.27;;;2.20;;
38264;SDS011;24062;47.480;8.768;2023-08-31T11:49:04;4.17;;;2.00;;
38264;SDS011;24062;47.480;8.768;2023-08-31T11:51:33;3.20;;;2.13;;
38264;SDS011;24062;47.480;8.768;2023-08-31T11:54:01;5.43;;;2.07;;
38264;SDS011;24062;47.480;8.768;2023-08-31T11:56:37;4.27;;;2.20;;
38264;SDS011;24062;47.480;8.768;2023-08-31T11:59:07;3.80;;;2.20;;
38264;SDS011;24062;47.480;8.768;2023-08-31T12:01:38;3.27;;;1.90;;
38264;SDS011;24062;47.480;8.768;2023-08-31T12:04:10;2.80;;;2.13;;
38264;SDS011;24062;47.480;8.768;2023-08-31T12:06:39;4.20;;;2.07;;
38264;SDS011;24062;47.480;8.768;2023-08-31T12:09:07;2.53;;;1.63;;
38264;SDS011;24062;47.480;8.768;2023-08-31T12:11:34;2.40;;;1.70;;
38264;SDS011;24062;47.480;8.768;2023-08-31T12:14:02;3.23;;;1.90;;
38264;SDS011;24062;47.480;8.768;2023-08-31T12:16:33;3.30;;;1.70;;
38264;SDS011;24062;47.480;8.768;2023-08-31T12:19:04;3.03;;;1.60;;
38264;SDS011;24062;47.480;8.768;2023-08-31T12:21:31;3.17;;;1.60;;
38264;SDS011;24062;47.480;8.768;2023-08-31T12:23:59;2.60;;;1.70;;
38264;SDS011;24062;47.480;8.768;2023-08-31T12:26:28;2.60;;;1.80;;
38264;SDS011;24062;47.480;8.768;2023-08-31T12:28:55;2.70;;;1.67;;
38264;SDS011;24062;47.480;8.768;2023-08-31T12:31:22;2.17;;;1.57;;
38264;SDS011;24062;47.480;8.768;2023-08-31T12:33:49;1.93;;;1.40;;
38264;SDS011;24062;47.480;8.768;2023-08-31T12:36:16;2.23;;;1.40;;
38264;SDS011;24062;47.480;8.768;2023-08-31T12:38:43;2.00;;;1.50;;
38264;SDS011;24062;47.480;8.768;2023-08-31T12:41:11;2.47;;;1.77;;
38264;SDS011;24062;47.480;8.768;2023-08-31T12:43:38;2.30;;;1.60;;
38264;SDS011;24062;47.480;8.768;2023-08-31T12:46:05;2.50;;;1.20;;
38264;SDS011;24062;47.480;8.768;2023-08-31T12:48:34;2.63;;;1.30;;
38264;SDS011;24062;47.480;8.768;2023-08-31T12:51:01;3.03;;;1.30;;
38264;SDS011;24062;47.480;8.768;2023-08-31T12:53:28;2.00;;;1.40;;
38264;SDS011;24062;47.480;8.768;2023-08-31T12:55:55;2.20;;;1.63;;
38264;SDS011;24062;47.480;8.768;2023-08-31T12:58:24;2.03;;;1.20;;
38264;SDS011;24062;47.480;8.768;2023-08-31T13:00:51;2.60;;;1.70;;
38264;SDS011;24062;47.480;8.768;2023-08-31T13:03:18;2.27;;;1.33;;
38264;SDS011;24062;47.480;8.768;2023-08-31T13:05:45;2.57;;;1.60;;
38264;SDS011;24062;47.480;8.768;2023-08-31T13:08:14;2.83;;;1.90;;
38264;SDS011;24062;47.480;8.768;2023-08-31T13:10:40;2.03;;;1.37;;
38264;SDS011;24062;47.480;8.768;2023-08-31T13:13:08;2.10;;;1.23;;
38264;SDS011;24062;47.480;8.768;2023-08-31T13:15:36;2.17;;;1.20;;
38264;SDS011;24062;47.480;8.768;2023-08-31T13:18:03;2.03;;;1.20;;
38264;SDS011;24062;47.480;8.768;2023-08-31T13:20:30;1.97;;;1.20;;
38264;SDS011;24062;47.480;8.768;2023-08-31T13:22:57;2.10;;;1.30;;
38264;SDS011;24062;47.480;8.768;2023-08-31T13:25:24;2.23;;;1.23;;
38264;SDS011;24062;47.480;8.768;2023-08-31T13:27:51;2.10;;;1.40;;
38264;SDS011;24062;47.480;8.768;2023-08-31T13:30:18;2.60;;;1.60;;
38264;SDS011;24062;47.480;8.768;2023-08-31T13:32:47;2.00;;;1.13;;
38264;SDS011;24062;47.480;8.768;2023-08-31T13:35:14;1.93;;;1.30;;
38264;SDS011;24062;47.480;8.768;2023-08-31T13:37:41;2.33;;;1.30;;
38264;SDS011;24062;47.480;8.768;2023-08-31T13:40:08;1.90;;;1.33;;
38264;SDS011;24062;47.480;8.768;2023-08-31T13:42:35;2.23;;;1.40;;
38264;SDS011;24062;47.480;8.768;2023-08-31T13:45:04;2.40;;;1.30;;
38264;SDS011;24062;47.480;8.768;2023-08-31T13:47:33;2.10;;;1.30;;
38264;SDS011;24062;47.480;8.768;2023-08-31T13:50:01;1.80;;;1.10;;
38264;SDS011;24062;47.480;8.768;2023-08-31T13:52:29;1.97;;;1.30;;
38264;SDS011;24062;47.480;8.768;2023-08-31T13:54:56;2.00;;;1.23;;
38264;SDS011;24062;47.480;8.768;2023-08-31T13:57:22;2.23;;;1.30;;
38264;SDS011;24062;47.480;8.768;2023-08-31T13:59:49;2.60;;;1.30;;
38264;SDS011;24062;47.480;8.768;2023-08-31T14:02:17;2.17;;;1.20;;
38264;SDS011;24062;47.480;8.768;2023-08-31T14:04:44;2.00;;;1.23;;
38264;SDS011;24062;47.480;8.768;2023-08-31T14:07:13;2.37;;;1.63;;
38264;SDS011;24062;47.480;8.768;2023-08-31T14:09:39;1.80;;;1.20;;
38264;SDS011;24062;47.480;8.768;2023-08-31T14:12:06;2.20;;;1.33;;
38264;SDS011;24062;47.480;8.768;2023-08-31T14:14:34;2.17;;;1.47;;
38264;SDS011;24062;47.480;8.768;2023-08-31T14:17:01;2.43;;;1.30;;
38264;SDS011;24062;47.480;8.768;2023-08-31T14:19:28;2.80;;;1.67;;
38264;SDS011;24062;47.480;8.768;2023-08-31T14:21:55;2.13;;;1.33;;
38264;SDS011;24062;47.480;8.768;2023-08-31T14:24:24;2.00;;;1.27;;
38264;SDS011;24062;47.480;8.768;2023-08-31T14:26:50;2.77;;;1.77;;
38264;SDS011;24062;47.480;8.768;2023-08-31T14:29:17;1.90;;;1.30;;
38264;SDS011;24062;47.480;8.768;2023-08-31T14:31:44;3.23;;;1.40;;
38264;SDS011;24062;47.480;8.768;2023-08-31T14:34:11;4.53;;;1.27;;
38264;SDS011;24062;47.480;8.768;2023-08-31T14:36:38;2.13;;;1.30;;
38264;SDS011;24062;47.480;8.768;2023-08-31T14:39:05;2.20;;;1.20;;
38264;SDS011;24062;47.480;8.768;2023-08-31T14:41:33;2.07;;;1.10;;
38264;SDS011;24062;47.480;8.768;2023-08-31T14:44:00;2.70;;;1.67;;
38264;SDS011;24062;47.480;8.768;2023-08-31T14:46:27;2.23;;;1.40;;
38264;SDS011;24062;47.480;8.768;2023-08-31T14:48:54;3.07;;;1.40;;
38264;SDS011;24062;47.480;8.768;2023-08-31T14:51:21;1.90;;;1.23;;
38264;SDS011;24062;47.480;8.768;2023-08-31T14:53:48;2.73;;;1.20;;
38264;SDS011;24062;47.480;8.768;2023-08-31T14:56:15;1.97;;;1.30;;
38264;SDS011;24062;47.480;8.768;2023-08-31T14:58:43;2.30;;;1.40;;
38264;SDS011;24062;47.480;8.768;2023-08-31T15:01:10;1.80;;;1.30;;